sensor_id;sensor_type;location;lat;lon;timestamp;pressure;altitude;pressure_sealevel;temperature;humidity
68145;BME280;55400;51.824;-0.196;2023-04-23T00:00:42;99235.74;;;12.05;65.56
68145;BME280;55400;51.824;-0.196;2023-04-23T00:04:49;99235.74;;;11.99;66.67
68145;BME280;55400;51.824;-0.196;2023-04-23T00:08:43;99228.27;;;11.93;67.07
68145;BME280;55400;51.824;-0.196;2023-04-23T00:12:42;99217.01000000001;;;11.87;68.10
68145;BME280;55400;51.824;-0.196;2023-04-23T00:16:42;99217.01000000001;;;11.86;69.17
68145;BME280;55400;51.824;-0.196;2023-04-23T00:20:42;99206.2;;;11.87;69.93
68145;BME280;55400;51.824;-0.196;2023-04-23T00:24:42;99207.67;;;11.92;69.89
68145;BME280;55400;51.824;-0.196;2023-04-23T00:28:42;99204.16;;;11.91;69.99
68145;BME280;55400;51.824;-0.196;2023-04-23T00:32:42;99204.16;;;11.88;69.99
68145;BME280;55400;51.824;-0.196;2023-04-23T00:36:42;99189.76;;;11.87;70.74
68145;BME280;55400;51.824;-0.196;2023-04-23T00:40:42;99190.16;;;11.89;70.82
68145;BME280;55400;51.824;-0.196;2023-04-23T00:44:42;99183.1;;;11.90;70.78
68145;BME280;55400;51.824;-0.196;2023-04-23T00:48:42;99187.27;;;11.88;70.78
68145;BME280;55400;51.824;-0.196;2023-04-23T00:52:42;99186.1;;;11.86;71.17
68145;BME280;55400;51.824;-0.196;2023-04-23T00:56:43;99180.1;;;11.84;72.36
68145;BME280;55400;51.824;-0.196;2023-04-23T01:00:43;99178.52;;;11.83;72.36
68145;BME280;55400;51.824;-0.196;2023-04-23T01:04:42;99172.91;;;11.84;72.53
68145;BME280;55400;51.824;-0.196;2023-04-23T01:08:43;99164.59;;;11.86;71.84
68145;BME280;55400;51.824;-0.196;2023-04-23T01:16:43;99163.84000000001;;;11.84;72.01
68145;BME280;55400;51.824;-0.196;2023-04-23T01:20:42;99163.92;;;11.74;71.86
68145;BME280;55400;51.824;-0.196;2023-04-23T01:24:43;99155.02;;;11.68;72.99
68145;BME280;55400;51.824;-0.196;2023-04-23T01:28:42;99144.51000000001;;;11.69;73.25
68145;BME280;55400;51.824;-0.196;2023-04-23T01:32:43;99143.04;;;11.71;73.04
68145;BME280;55400;51.824;-0.196;2023-04-23T01:36:42;99143.04;;;11.74;72.75
68145;BME280;55400;51.824;-0.196;2023-04-23T01:40:43;99129.6;;;11.71;72.28
68145;BME280;55400;51.824;-0.196;2023-04-23T01:48:43;99123.5;;;11.66;72.50
68145;BME280;55400;51.824;-0.196;2023-04-23T01:52:42;99123.5;;;11.61;72.90
68145;BME280;55400;51.824;-0.196;2023-04-23T02:00:43;99115.35;;;11.62;73.10
68145;BME280;55400;51.824;-0.196;2023-04-23T02:04:43;99119.9;;;11.60;72.39
68145;BME280;55400;51.824;-0.196;2023-04-23T02:08:43;99109.5;;;11.50;71.95
68145;BME280;55400;51.824;-0.196;2023-04-23T02:12:43;99106.89;;;11.43;71.95
68145;BME280;55400;51.824;-0.196;2023-04-23T02:16:43;99102.08;;;11.39;72.20
68145;BME280;55400;51.824;-0.196;2023-04-23T02:20:43;99102.08;;;11.37;72.16
68145;BME280;55400;51.824;-0.196;2023-04-23T02:32:43;99100.11;;;11.28;70.78
68145;BME280;55400;51.824;-0.196;2023-04-23T02:36:43;99102.19;;;11.25;70.78
68145;BME280;55400;51.824;-0.196;2023-04-23T02:44:43;99096.09;;;11.29;70.87
68145;BME280;55400;51.824;-0.196;2023-04-23T02:48:43;99096.06;;;11.27;70.40
68145;BME280;55400;51.824;-0.196;2023-04-23T02:52:43;99096.06;;;11.26;70.74
68145;BME280;55400;51.824;-0.196;2023-04-23T02:56:43;99098.73999999999;;;11.22;70.79
68145;BME280;55400;51.824;-0.196;2023-04-23T03:00:43;99099.45;;;11.18;70.66
68145;BME280;55400;51.824;-0.196;2023-04-23T03:04:43;99094.84;;;11.13;70.68
68145;BME280;55400;51.824;-0.196;2023-04-23T03:08:43;99086.73999999999;;;11.10;70.68
68145;BME280;55400;51.824;-0.196;2023-04-23T03:12:43;99086.73999999999;;;11.14;70.88
68145;BME280;55400;51.824;-0.196;2023-04-23T03:16:43;99089.03;;;11.17;70.70
68145;BME280;55400;51.824;-0.196;2023-04-23T03:20:43;99089.03;;;11.20;70.70
68145;BME280;55400;51.824;-0.196;2023-04-23T03:24:43;99091.11;;;11.21;70.65
68145;BME280;55400;51.824;-0.196;2023-04-23T03:32:43;99088.54;;;11.19;71.15
68145;BME280;55400;51.824;-0.196;2023-04-23T03:36:43;99087.61;;;11.21;71.15
68145;BME280;55400;51.824;-0.196;2023-04-23T03:44:43;99086.75;;;11.22;71.57
68145;BME280;55400;51.824;-0.196;2023-04-23T03:48:43;99086.75;;;11.25;71.57
68145;BME280;55400;51.824;-0.196;2023-04-23T03:52:43;99086.91;;;11.22;71.77
68145;BME280;55400;51.824;-0.196;2023-04-23T03:56:43;99081.73000000001;;;11.18;71.20
68145;BME280;55400;51.824;-0.196;2023-04-23T04:00:43;99077.99;;;11.15;71.37
68145;BME280;55400;51.824;-0.196;2023-04-23T04:04:43;99078.12;;;11.16;71.37
68145;BME280;55400;51.824;-0.196;2023-04-23T04:08:43;99073.73999999999;;;11.13;71.67
68145;BME280;55400;51.824;-0.196;2023-04-23T04:12:43;99073.73999999999;;;11.10;71.86
68145;BME280;55400;51.824;-0.196;2023-04-23T04:16:43;99064.4;;;11.06;71.33
68145;BME280;55400;51.824;-0.196;2023-04-23T04:24:43;99062.44;;;11.08;71.78
68145;BME280;55400;51.824;-0.196;2023-04-23T04:28:43;99053.65000000001;;;11.05;71.08
68145;BME280;55400;51.824;-0.196;2023-04-23T04:32:43;99053.66;;;11.06;70.96
68145;BME280;55400;51.824;-0.196;2023-04-23T04:36:43;99052.5;;;11.02;70.96
68145;BME280;55400;51.824;-0.196;2023-04-23T04:40:43;99055.62999999999;;;11.00;71.29
68145;BME280;55400;51.824;-0.196;2023-04-23T04:48:44;99056.25;;;10.99;71.10
68145;BME280;55400;51.824;-0.196;2023-04-23T04:52:43;99058.09000000001;;;10.92;71.35
68145;BME280;55400;51.824;-0.196;2023-04-23T05:00:43;99065.11;;;10.90;70.57
68145;BME280;55400;51.824;-0.196;2023-04-23T05:04:43;99063.16;;;10.88;70.37
68145;BME280;55400;51.824;-0.196;2023-04-23T05:08:43;99063.16;;;10.87;70.37
68145;BME280;55400;51.824;-0.196;2023-04-23T05:12:43;99061.13;;;10.86;70.82
68145;BME280;55400;51.824;-0.196;2023-04-23T05:16:43;99060.85;;;10.79;70.35
68145;BME280;55400;51.824;-0.196;2023-04-23T05:20:43;99060.29;;;10.75;70.08
68145;BME280;55400;51.824;-0.196;2023-04-23T05:24:43;99060.29;;;10.73;70.08
68145;BME280;55400;51.824;-0.196;2023-04-23T05:28:43;99067.26;;;10.76;70.66
68145;BME280;55400;51.824;-0.196;2023-04-23T05:32:43;99066.49;;;10.73;70.30
68145;BME280;55400;51.824;-0.196;2023-04-23T05:36:43;99072.61;;;10.76;70.44
68145;BME280;55400;51.824;-0.196;2023-04-23T05:40:43;99062.0;;;10.78;70.54
68145;BME280;55400;51.824;-0.196;2023-04-23T05:44:43;99063.69;;;10.82;70.78
68145;BME280;55400;51.824;-0.196;2023-04-23T05:48:43;99063.69;;;10.80;70.18
68145;BME280;55400;51.824;-0.196;2023-04-23T05:56:43;99059.63;;;10.84;70.84
68145;BME280;55400;51.824;-0.196;2023-04-23T06:00:43;99060.51999999999;;;10.88;70.66
68145;BME280;55400;51.824;-0.196;2023-04-23T06:08:43;99058.44;;;10.81;70.23
68145;BME280;55400;51.824;-0.196;2023-04-23T06:12:43;99063.19;;;10.82;70.09
68145;BME280;55400;51.824;-0.196;2023-04-23T06:16:43;99063.19;;;10.79;70.09
68145;BME280;55400;51.824;-0.196;2023-04-23T06:20:43;99061.76000000001;;;10.82;70.81
68145;BME280;55400;51.824;-0.196;2023-04-23T06:24:43;99068.86;;;10.84;70.59
68145;BME280;55400;51.824;-0.196;2023-04-23T06:28:44;99068.86;;;10.87;70.59
68145;BME280;55400;51.824;-0.196;2023-04-23T06:32:43;99072.14;;;10.83;70.57
68145;BME280;55400;51.824;-0.196;2023-04-23T06:36:43;99072.14;;;10.87;71.22
68145;BME280;55400;51.824;-0.196;2023-04-23T06:40:43;99076.56;;;10.85;70.37
68145;BME280;55400;51.824;-0.196;2023-04-23T06:44:43;99077.25;;;10.88;70.62
68145;BME280;55400;51.824;-0.196;2023-04-23T06:48:44;99079.26;;;10.92;70.99
68145;BME280;55400;51.824;-0.196;2023-04-23T06:52:43;99077.0;;;10.93;71.10
68145;BME280;55400;51.824;-0.196;2023-04-23T06:56:43;99076.68;;;11.00;71.10
68145;BME280;55400;51.824;-0.196;2023-04-23T07:00:43;99074.2;;;11.10;70.61
68145;BME280;55400;51.824;-0.196;2023-04-23T07:04:43;99070.58;;;11.20;70.41
68145;BME280;55400;51.824;-0.196;2023-04-23T07:08:43;99068.34999999999;;;11.27;70.02
68145;BME280;55400;51.824;-0.196;2023-04-23T07:12:43;99077.28;;;11.35;70.38
68145;BME280;55400;51.824;-0.196;2023-04-23T07:16:43;99078.44;;;11.30;69.52
68145;BME280;55400;51.824;-0.196;2023-04-23T07:20:43;99078.25;;;11.33;70.11
68145;BME280;55400;51.824;-0.196;2023-04-23T07:28:44;99077.22;;;11.34;69.45
68145;BME280;55400;51.824;-0.196;2023-04-23T07:32:43;99082.51000000001;;;11.41;69.52
68145;BME280;55400;51.824;-0.196;2023-04-23T07:36:43;99083.64;;;11.51;69.37
68145;BME280;55400;51.824;-0.196;2023-04-23T07:40:43;99090.22;;;11.55;69.37
68145;BME280;55400;51.824;-0.196;2023-04-23T07:44:44;99087.81;;;11.52;68.34
68145;BME280;55400;51.824;-0.196;2023-04-23T07:52:44;99078.75;;;11.61;69.04
68145;BME280;55400;51.824;-0.196;2023-04-23T07:56:43;99082.14;;;11.63;68.50
68145;BME280;55400;51.824;-0.196;2023-04-23T08:00:44;99081.95;;;11.57;68.36
68145;BME280;55400;51.824;-0.196;2023-04-23T08:04:44;99079.97;;;11.58;68.36
68145;BME280;55400;51.824;-0.196;2023-04-23T08:08:44;99079.97;;;11.57;68.35
68145;BME280;55400;51.824;-0.196;2023-04-23T08:12:44;99084.55;;;11.50;68.16
68145;BME280;55400;51.824;-0.196;2023-04-23T08:16:44;99088.98000000001;;;11.48;68.16
68145;BME280;55400;51.824;-0.196;2023-04-23T08:20:44;99088.98000000001;;;11.53;68.71
68145;BME280;55400;51.824;-0.196;2023-04-23T08:24:44;99085.96;;;11.58;68.35
68145;BME280;55400;51.824;-0.196;2023-04-23T08:28:44;99090.94;;;11.61;68.06
68145;BME280;55400;51.824;-0.196;2023-04-23T08:32:45;99094.34;;;11.64;67.98
68145;BME280;55400;51.824;-0.196;2023-04-23T08:36:44;99090.61;;;11.73;67.79
68145;BME280;55400;51.824;-0.196;2023-04-23T08:40:44;99090.61;;;11.80;67.53
68145;BME280;55400;51.824;-0.196;2023-04-23T08:44:44;99094.81;;;11.85;67.18
68145;BME280;55400;51.824;-0.196;2023-04-23T08:48:44;99089.61;;;11.93;66.96
68145;BME280;55400;51.824;-0.196;2023-04-23T08:52:45;99090.76;;;12.06;67.19
68145;BME280;55400;51.824;-0.196;2023-04-23T08:56:44;99090.0;;;12.13;66.59
68145;BME280;55400;51.824;-0.196;2023-04-23T09:00:44;99082.32;;;12.25;66.24
68145;BME280;55400;51.824;-0.196;2023-04-23T09:04:44;99082.32;;;12.37;66.26
68145;BME280;55400;51.824;-0.196;2023-04-23T09:08:44;99075.98000000001;;;12.50;66.60
68145;BME280;55400;51.824;-0.196;2023-04-23T09:12:44;99075.98000000001;;;12.61;66.60
68145;BME280;55400;51.824;-0.196;2023-04-23T09:16:44;99070.31;;;12.70;66.41
68145;BME280;55400;51.824;-0.196;2023-04-23T09:20:44;99068.38;;;12.77;66.20
68145;BME280;55400;51.824;-0.196;2023-04-23T09:28:44;99070.86;;;12.74;64.93
68145;BME280;55400;51.824;-0.196;2023-04-23T09:32:44;99063.2;;;12.73;63.54
68145;BME280;55400;51.824;-0.196;2023-04-23T09:36:44;99061.83;;;12.68;63.54
68145;BME280;55400;51.824;-0.196;2023-04-23T09:40:44;99057.56999999999;;;12.63;63.74
68145;BME280;55400;51.824;-0.196;2023-04-23T09:44:44;99057.56999999999;;;12.55;64.68
68145;BME280;55400;51.824;-0.196;2023-04-23T09:48:44;99057.36;;;12.53;67.76
68145;BME280;55400;51.824;-0.196;2023-04-23T09:52:44;99057.36;;;12.54;67.76
68145;BME280;55400;51.824;-0.196;2023-04-23T09:56:48;99054.92;;;12.57;68.53
68145;BME280;55400;51.824;-0.196;2023-04-23T10:00:44;99057.61;;;12.61;69.33
68145;BME280;55400;51.824;-0.196;2023-04-23T10:04:44;99049.56;;;12.69;69.33
68145;BME280;55400;51.824;-0.196;2023-04-23T10:08:44;99054.36;;;12.73;69.00
68145;BME280;55400;51.824;-0.196;2023-04-23T10:16:44;99052.5;;;12.77;68.87
68145;BME280;55400;51.824;-0.196;2023-04-23T10:20:44;99052.5;;;12.83;69.00
68145;BME280;55400;51.824;-0.196;2023-04-23T10:24:44;99039.86;;;12.87;69.35
68145;BME280;55400;51.824;-0.196;2023-04-23T10:28:45;99042.58;;;12.93;68.84
68145;BME280;55400;51.824;-0.196;2023-04-23T10:32:44;99042.58;;;12.91;68.84
68145;BME280;55400;51.824;-0.196;2023-04-23T10:36:44;99045.15;;;12.86;67.77
68145;BME280;55400;51.824;-0.196;2023-04-23T10:40:44;99044.08;;;12.83;66.95
68145;BME280;55400;51.824;-0.196;2023-04-23T10:44:44;99049.41;;;12.73;67.12
68145;BME280;55400;51.824;-0.196;2023-04-23T10:48:51;99049.41;;;12.52;65.93
68145;BME280;55400;51.824;-0.196;2023-04-23T10:52:44;99054.89;;;12.41;66.49
68145;BME280;55400;51.824;-0.196;2023-04-23T10:56:44;99052.88;;;12.28;66.72
68145;BME280;55400;51.824;-0.196;2023-04-23T11:00:44;99058.73;;;12.20;66.87
68145;BME280;55400;51.824;-0.196;2023-04-23T11:04:45;99057.53;;;12.08;67.27
68145;BME280;55400;51.824;-0.196;2023-04-23T11:08:52;99054.58;;;12.02;67.27
68145;BME280;55400;51.824;-0.196;2023-04-23T11:12:44;99048.83;;;12.00;66.84
68145;BME280;55400;51.824;-0.196;2023-04-23T11:16:44;99048.83;;;11.97;66.84
68145;BME280;55400;51.824;-0.196;2023-04-23T11:20:45;99052.36;;;12.02;68.00
68145;BME280;55400;51.824;-0.196;2023-04-23T11:24:44;99051.72;;;12.09;68.00
68145;BME280;55400;51.824;-0.196;2023-04-23T11:28:44;99050.56;;;12.11;67.08
68145;BME280;55400;51.824;-0.196;2023-04-23T11:32:45;99052.98;;;12.07;66.15
68145;BME280;55400;51.824;-0.196;2023-04-23T11:36:45;99052.98;;;12.04;66.15
68145;BME280;55400;51.824;-0.196;2023-04-23T11:40:44;99048.65999999999;;;12.06;66.83
68145;BME280;55400;51.824;-0.196;2023-04-23T11:44:44;99045.72;;;12.07;66.83
68145;BME280;55400;51.824;-0.196;2023-04-23T11:48:44;99048.41;;;12.09;67.32
68145;BME280;55400;51.824;-0.196;2023-04-23T11:52:44;99047.97;;;12.14;67.79
68145;BME280;55400;51.824;-0.196;2023-04-23T11:56:44;99050.59;;;12.21;66.74
68145;BME280;55400;51.824;-0.196;2023-04-23T12:00:44;99045.45000000001;;;12.26;66.74
68145;BME280;55400;51.824;-0.196;2023-04-23T12:04:44;99041.41;;;12.32;66.53
68145;BME280;55400;51.824;-0.196;2023-04-23T12:08:45;99041.41;;;12.41;66.96
68145;BME280;55400;51.824;-0.196;2023-04-23T12:12:48;99035.70999999999;;;12.47;67.11
68145;BME280;55400;51.824;-0.196;2023-04-23T12:16:45;99035.05;;;12.53;67.11
68145;BME280;55400;51.824;-0.196;2023-04-23T12:20:44;99032.82;;;12.61;68.13
68145;BME280;55400;51.824;-0.196;2023-04-23T12:24:45;99030.72;;;12.69;67.56
68145;BME280;55400;51.824;-0.196;2023-04-23T12:28:45;99028.62;;;12.77;67.50
68145;BME280;55400;51.824;-0.196;2023-04-23T12:32:44;99024.11;;;12.85;67.36
68145;BME280;55400;51.824;-0.196;2023-04-23T12:36:45;99024.11;;;12.88;67.33
68145;BME280;55400;51.824;-0.196;2023-04-23T12:40:44;99020.84;;;12.93;68.34
68145;BME280;55400;51.824;-0.196;2023-04-23T12:44:44;99020.84;;;12.92;68.00
68145;BME280;55400;51.824;-0.196;2023-04-23T12:52:45;99027.70000000001;;;12.96;67.39
68145;BME280;55400;51.824;-0.196;2023-04-23T13:00:44;99024.06;;;13.01;67.46
68145;BME280;55400;51.824;-0.196;2023-04-23T13:04:44;99017.19;;;13.06;67.63
68145;BME280;55400;51.824;-0.196;2023-04-23T13:08:45;99013.62000000001;;;13.12;67.42
68145;BME280;55400;51.824;-0.196;2023-04-23T13:12:44;99013.62000000001;;;13.19;67.42
68145;BME280;55400;51.824;-0.196;2023-04-23T13:16:45;99010.5;;;13.29;67.76
68145;BME280;55400;51.824;-0.196;2023-04-23T13:20:44;99014.36;;;13.34;67.37
68145;BME280;55400;51.824;-0.196;2023-04-23T13:24:45;99014.81;;;13.39;67.16
68145;BME280;55400;51.824;-0.196;2023-04-23T13:28:44;99011.28;;;13.40;66.75
68145;BME280;55400;51.824;-0.196;2023-04-23T13:32:45;99014.70000000001;;;13.34;66.63
68145;BME280;55400;51.824;-0.196;2023-04-23T13:36:44;99011.5;;;13.23;66.02
68145;BME280;55400;51.824;-0.196;2023-04-23T13:40:45;99011.6;;;13.16;66.47
68145;BME280;55400;51.824;-0.196;2023-04-23T13:44:45;99004.25;;;13.07;66.47
68145;BME280;55400;51.824;-0.196;2023-04-23T13:48:45;99001.28;;;13.04;65.01
68145;BME280;55400;51.824;-0.196;2023-04-23T13:52:45;99000.21;;;13.02;66.48
68145;BME280;55400;51.824;-0.196;2023-04-23T13:56:45;99000.21;;;13.01;66.48
68145;BME280;55400;51.824;-0.196;2023-04-23T14:00:45;99000.17;;;13.00;65.76
68145;BME280;55400;51.824;-0.196;2023-04-23T14:04:45;98992.76999999999;;;13.02;65.57
68145;BME280;55400;51.824;-0.196;2023-04-23T14:08:45;98989.98;;;13.05;65.49
68145;BME280;55400;51.824;-0.196;2023-04-23T14:12:45;98993.38;;;13.09;64.86
68145;BME280;55400;51.824;-0.196;2023-04-23T14:16:45;98991.83;;;13.17;65.55
68145;BME280;55400;51.824;-0.196;2023-04-23T14:20:45;98991.83;;;13.23;65.10
68145;BME280;55400;51.824;-0.196;2023-04-23T14:24:45;98991.16;;;13.31;65.49
68145;BME280;55400;51.824;-0.196;2023-04-23T14:28:45;98986.19;;;13.35;64.84
68145;BME280;55400;51.824;-0.196;2023-04-23T14:32:45;98988.25;;;13.39;64.84
68145;BME280;55400;51.824;-0.196;2023-04-23T14:36:45;98988.25;;;13.43;65.01
68145;BME280;55400;51.824;-0.196;2023-04-23T14:44:45;98987.61;;;13.46;64.71
68145;BME280;55400;51.824;-0.196;2023-04-23T14:48:45;98982.72;;;13.50;64.62
68145;BME280;55400;51.824;-0.196;2023-04-23T14:52:46;98982.72;;;13.48;64.85
68145;BME280;55400;51.824;-0.196;2023-04-23T14:56:45;98990.92000000001;;;13.44;64.38
68145;BME280;55400;51.824;-0.196;2023-04-23T15:00:45;98990.92000000001;;;13.40;64.57
68145;BME280;55400;51.824;-0.196;2023-04-23T15:04:45;98992.3;;;13.42;64.80
68145;BME280;55400;51.824;-0.196;2023-04-23T15:08:45;98992.3;;;13.46;64.75
68145;BME280;55400;51.824;-0.196;2023-04-23T15:12:48;98988.7;;;13.52;64.28
68145;BME280;55400;51.824;-0.196;2023-04-23T15:16:45;98990.84;;;13.54;63.58
68145;BME280;55400;51.824;-0.196;2023-04-23T15:20:45;98991.94;;;13.62;63.58
68145;BME280;55400;51.824;-0.196;2023-04-23T15:24:45;98994.03;;;13.75;63.14
68145;BME280;55400;51.824;-0.196;2023-04-23T15:28:45;98992.8;;;13.89;63.14
68145;BME280;55400;51.824;-0.196;2023-04-23T15:32:45;98992.8;;;14.09;62.07
68145;BME280;55400;51.824;-0.196;2023-04-23T15:36:45;98989.29000000001;;;14.25;61.55
68145;BME280;55400;51.824;-0.196;2023-04-23T15:40:45;98984.98;;;14.32;58.12
68145;BME280;55400;51.824;-0.196;2023-04-23T15:44:46;98983.37;;;14.43;58.12
68145;BME280;55400;51.824;-0.196;2023-04-23T15:48:45;98983.23000000001;;;14.65;59.58
68145;BME280;55400;51.824;-0.196;2023-04-23T15:56:45;98999.19;;;14.55;57.88
68145;BME280;55400;51.824;-0.196;2023-04-23T16:00:45;98999.19;;;14.46;57.88
68145;BME280;55400;51.824;-0.196;2023-04-23T16:04:45;98997.77;;;14.38;58.28
68145;BME280;55400;51.824;-0.196;2023-04-23T16:08:45;99006.19;;;14.33;57.37
68145;BME280;55400;51.824;-0.196;2023-04-23T16:12:45;99002.11;;;14.35;57.37
68145;BME280;55400;51.824;-0.196;2023-04-23T16:16:45;99001.09999999999;;;14.31;57.17
68145;BME280;55400;51.824;-0.196;2023-04-23T16:20:45;99001.09999999999;;;14.22;56.38
68145;BME280;55400;51.824;-0.196;2023-04-23T16:24:45;99002.94;;;14.16;56.67
68145;BME280;55400;51.824;-0.196;2023-04-23T16:28:45;99002.94;;;14.01;57.45
68145;BME280;55400;51.824;-0.196;2023-04-23T16:32:45;99023.93;;;13.82;59.57
68145;BME280;55400;51.824;-0.196;2023-04-23T16:36:45;99023.93;;;13.67;59.57
68145;BME280;55400;51.824;-0.196;2023-04-23T16:40:45;99032.31;;;13.54;59.86
68145;BME280;55400;51.824;-0.196;2023-04-23T16:44:45;99034.41;;;13.41;59.93
68145;BME280;55400;51.824;-0.196;2023-04-23T16:48:45;99034.41;;;13.36;60.12
68145;BME280;55400;51.824;-0.196;2023-04-23T16:52:45;99036.56999999999;;;13.35;60.20
68145;BME280;55400;51.824;-0.196;2023-04-23T16:56:45;99040.42;;;13.34;60.20
68145;BME280;55400;51.824;-0.196;2023-04-23T17:00:45;99035.77;;;13.24;59.84
68145;BME280;55400;51.824;-0.196;2023-04-23T17:04:45;99045.26;;;13.17;59.15
68145;BME280;55400;51.824;-0.196;2023-04-23T17:08:45;99057.17;;;13.13;60.55
68145;BME280;55400;51.824;-0.196;2023-04-23T17:12:45;99061.97;;;12.95;60.55
68145;BME280;55400;51.824;-0.196;2023-04-23T17:16:45;99067.14;;;12.78;61.03
68145;BME280;55400;51.824;-0.196;2023-04-23T17:20:45;99074.01999999999;;;12.63;61.53
68145;BME280;55400;51.824;-0.196;2023-04-23T17:24:45;99082.20999999999;;;12.49;62.18
68145;BME280;55400;51.824;-0.196;2023-04-23T17:32:45;99086.51999999999;;;12.50;62.38
68145;BME280;55400;51.824;-0.196;2023-04-23T17:36:45;99095.23000000001;;;12.48;62.44
68145;BME280;55400;51.824;-0.196;2023-04-23T17:40:46;99102.5;;;12.47;62.85
68145;BME280;55400;51.824;-0.196;2023-04-23T17:44:45;99112.7;;;12.54;62.90
68145;BME280;55400;51.824;-0.196;2023-04-23T17:48:45;99112.97;;;12.56;63.03
68145;BME280;55400;51.824;-0.196;2023-04-23T17:52:45;99115.3;;;12.47;64.23
68145;BME280;55400;51.824;-0.196;2023-04-23T17:56:45;99116.51000000001;;;12.38;64.47
68145;BME280;55400;51.824;-0.196;2023-04-23T18:00:46;99125.28;;;12.28;64.47
68145;BME280;55400;51.824;-0.196;2023-04-23T18:04:45;99125.45;;;12.20;64.42
68145;BME280;55400;51.824;-0.196;2023-04-23T18:08:45;99135.0;;;12.13;64.71
68145;BME280;55400;51.824;-0.196;2023-04-23T18:12:45;99138.01;;;12.04;65.03
68145;BME280;55400;51.824;-0.196;2023-04-23T18:16:45;99138.56;;;11.88;65.03
68145;BME280;55400;51.824;-0.196;2023-04-23T18:24:46;99144.34;;;11.82;65.85
68145;BME280;55400;51.824;-0.196;2023-04-23T18:28:45;99156.70999999999;;;11.80;65.81
68145;BME280;55400;51.824;-0.196;2023-04-23T18:36:45;99165.68;;;11.69;65.48
68145;BME280;55400;51.824;-0.196;2023-04-23T18:40:45;99165.68;;;11.58;65.38
68145;BME280;55400;51.824;-0.196;2023-04-23T18:44:45;99176.76;;;11.56;65.54
68145;BME280;55400;51.824;-0.196;2023-04-23T18:48:49;99176.76;;;11.52;65.54
68145;BME280;55400;51.824;-0.196;2023-04-23T18:52:46;99185.97;;;11.49;65.41
68145;BME280;55400;51.824;-0.196;2023-04-23T18:56:45;99198.49;;;11.47;65.44
68145;BME280;55400;51.824;-0.196;2023-04-23T19:00:45;99207.12;;;11.39;65.39
68145;BME280;55400;51.824;-0.196;2023-04-23T19:04:45;99207.12;;;11.34;65.39
68145;BME280;55400;51.824;-0.196;2023-04-23T19:08:46;99235.77;;;11.33;65.80
68145;BME280;55400;51.824;-0.196;2023-04-23T19:12:45;99235.77;;;11.23;65.80
68145;BME280;55400;51.824;-0.196;2023-04-23T19:16:46;99245.06;;;11.18;67.21
68145;BME280;55400;51.824;-0.196;2023-04-23T19:20:45;99253.74;;;11.08;67.21
68145;BME280;55400;51.824;-0.196;2023-04-23T19:24:46;99253.74;;;11.04;67.41
68145;BME280;55400;51.824;-0.196;2023-04-23T19:28:45;99277.20000000001;;;11.02;67.77
68145;BME280;55400;51.824;-0.196;2023-04-23T19:32:46;99277.20000000001;;;10.92;67.77
68145;BME280;55400;51.824;-0.196;2023-04-23T19:36:45;99289.85;;;10.83;67.90
68145;BME280;55400;51.824;-0.196;2023-04-23T19:40:46;99294.96;;;10.77;68.54
68145;BME280;55400;51.824;-0.196;2023-04-23T19:44:46;99294.96;;;10.79;68.54
68145;BME280;55400;51.824;-0.196;2023-04-23T19:48:46;99297.02;;;10.83;68.81
68145;BME280;55400;51.824;-0.196;2023-04-23T19:52:45;99310.02;;;10.81;68.64
68145;BME280;55400;51.824;-0.196;2023-04-23T20:00:46;99322.55;;;10.76;68.67
68145;BME280;55400;51.824;-0.196;2023-04-23T20:04:46;99331.53;;;10.60;68.63
68145;BME280;55400;51.824;-0.196;2023-04-23T20:08:46;99337.91;;;10.51;69.39
68145;BME280;55400;51.824;-0.196;2023-04-23T20:12:46;99339.51;;;10.47;69.39
68145;BME280;55400;51.824;-0.196;2023-04-23T20:16:46;99346.5;;;10.49;69.52
68145;BME280;55400;51.824;-0.196;2023-04-23T20:20:46;99353.34;;;10.50;69.54
68145;BME280;55400;51.824;-0.196;2023-04-23T20:24:46;99353.34;;;10.51;69.76
68145;BME280;55400;51.824;-0.196;2023-04-23T20:28:46;99358.59;;;10.54;69.65
68145;BME280;55400;51.824;-0.196;2023-04-23T20:32:46;99366.16;;;10.50;69.80
68145;BME280;55400;51.824;-0.196;2023-04-23T20:40:46;99376.31;;;10.49;69.90
68145;BME280;55400;51.824;-0.196;2023-04-23T20:44:46;99384.12;;;10.43;69.48
68145;BME280;55400;51.824;-0.196;2023-04-23T20:48:46;99384.12;;;10.38;69.48
68145;BME280;55400;51.824;-0.196;2023-04-23T20:52:46;99384.48;;;10.31;69.15
68145;BME280;55400;51.824;-0.196;2023-04-23T20:56:46;99384.38;;;10.38;69.15
68145;BME280;55400;51.824;-0.196;2023-04-23T21:00:46;99384.38;;;10.27;68.88
68145;BME280;55400;51.824;-0.196;2023-04-23T21:04:46;99389.84;;;10.21;68.94
68145;BME280;55400;51.824;-0.196;2023-04-23T21:12:46;99392.97;;;10.14;69.08
68145;BME280;55400;51.824;-0.196;2023-04-23T21:16:46;99394.23000000001;;;10.12;69.17
68145;BME280;55400;51.824;-0.196;2023-04-23T21:20:46;99401.51;;;10.05;69.33
68145;BME280;55400;51.824;-0.196;2023-04-23T21:24:46;99407.98;;;10.11;69.33
68145;BME280;55400;51.824;-0.196;2023-04-23T21:32:46;99419.97;;;10.06;69.12
68145;BME280;55400;51.824;-0.196;2023-04-23T21:36:48;99419.97;;;10.01;69.21
68145;BME280;55400;51.824;-0.196;2023-04-23T21:40:46;99426.76;;;9.99;69.28
68145;BME280;55400;51.824;-0.196;2023-04-23T21:44:46;99426.76;;;10.02;69.29
68145;BME280;55400;51.824;-0.196;2023-04-23T21:48:46;99430.17;;;10.06;69.08
68145;BME280;55400;51.824;-0.196;2023-04-23T21:52:46;99430.17;;;10.00;69.08
68145;BME280;55400;51.824;-0.196;2023-04-23T21:56:46;99433.54000000001;;;10.04;69.17
68145;BME280;55400;51.824;-0.196;2023-04-23T22:00:46;99433.54000000001;;;10.12;69.17
68145;BME280;55400;51.824;-0.196;2023-04-23T22:04:46;99445.04;;;10.18;69.00
68145;BME280;55400;51.824;-0.196;2023-04-23T22:08:46;99441.0;;;10.20;68.99
68145;BME280;55400;51.824;-0.196;2023-04-23T22:12:46;99441.0;;;10.22;68.95
68145;BME280;55400;51.824;-0.196;2023-04-23T22:16:46;99448.06999999999;;;10.14;69.17
68145;BME280;55400;51.824;-0.196;2023-04-23T22:20:46;99446.17;;;10.16;69.40